Metar Cercanos

 

LEPA - Palma De Mallorc, Spain
Distance from station: ONO 38km
Actualización: 27/06/2017 17:00
Few Clouds
Few Clouds
 Viento del SO
Viento: SO 13 km/h
Temperatura: 28°C
Indice Calor: 31°C
Rocío: 23°C
Humedad: 74%
Barómetro: 1008 hPa
Clouds: Few Clouds
Visibility: 10 km
Cloud details: Few Clouds 427 m
2017/06/27 15:00 LEPA 271500Z 23007KT 200V260 9999 FEW014 28/23 Q1008 NOSIG
LEMH - Mahon/Menorca Is, Spain
Distance from station: ENE 105km
Actualización: 27/06/2017 17:00
Few Clouds
Few Clouds
 Viento del SSO
Viento: SSO 19 km/h
Temperatura: 27°C
Indice Calor: 29°C
Rocío: 22°C
Humedad: 74%
Barómetro: 1009 hPa
Clouds: Few Clouds
Visibility: 10 km
Cloud details: Few Clouds 305 m
2017/06/27 15:00 LEMH 271500Z 20010KT 170V240 9999 FEW010 27/22 Q1009
 
LEIB - Ibiza/Es Codola, Spain
Distance from station: OSO 165km
Actualización: 27/06/2017 17:00
Drizzle, Muy nuboso
Drizzle, Muy nuboso
 Viento del SO
Viento: SO 11 km/h
Temperatura: 26°C
Rocío: 23°C
Humedad: 84%
Barómetro: 1007 hPa
Resumen: Drizzle
Clouds: Muy nuboso
Visibility: 10 km
Cloud details: Few Clouds 274 m
Muy nuboso 1067 m
2017/06/27 15:00 LEIB 271500Z 22006KT 170V300 9999 DZ FEW009 BKN035 26/23 Q1007 NOSIG
LEBL - Barcelona Airpor, Spain
Distance from station: NNO 225km
Actualización: 27/06/2017 17:00
Few Clouds
Few Clouds
 Viento del E
Viento: E 11 km/h
Temperatura: 28°C
Indice Calor: 30°C
Rocío: 22°C
Humedad: 70%
Barómetro: 1006 hPa
Clouds: Few Clouds
Visibility: 10 km
Cloud details: Few Clouds 762 m
2017/06/27 15:00 LEBL 271500Z 09006KT 060V120 9999 FEW025 28/22 Q1006 NOSIG
 
LEVC - Valencia (civ/Mi, Spain
Distance from station: NO 188km
Actualización: 27/06/2017 17:00
Few Clouds
Few Clouds
 Viento del O
Viento: O 26 km/h
Temperatura: 34°C
Indice Calor: 36°C
Rocío: 20°C
Humedad: 44%
Barómetro: 1005 hPa
Clouds: Few Clouds
Visibility: 10 km
Cloud details: Few Clouds 914 m
2017/06/27 15:00 LEVC 271500Z 27014KT 240V300 9999 FEW030 34/20 Q1005 NOSIG
LEGE - Gerona/Costa Bra, Spain
Distance from station: N 276km
Actualización: 27/06/2017 17:00
Few Clouds
Few Clouds
 Viento del S
Viento: S 22 km/h
Temperatura: 27°C
Indice Calor: 28°C
Rocío: 18°C
Humedad: 58%
Barómetro: 1006 hPa
Clouds: Few Clouds
Visibility: 10 km
Cloud details: Few Clouds 1524 m
2017/06/27 15:00 LEGE 271500Z 17012KT 140V210 9999 FEW050 27/18 Q1006
 
LEAL - Alicante/El Alte, Spain
Distance from station: OSO 344km
Actualización: 27/06/2017 17:00
Few Clouds
Few Clouds
 Viento del SE
Viento: SE 11 km/h
Temperatura: 28°C
Indice Calor: 31°C
Rocío: 23°C
Humedad: 74%
Barómetro: 1006 hPa
Clouds: Few Clouds
Visibility: 10 km
Cloud details: Few Clouds 244 m
Few Clouds 762 m
2017/06/27 15:00 LEAL 271500Z 13006KT 080V170 9999 FEW008 FEW025CB 28/23 Q1006 TEMPO 4000 TSRA
LEAM - Almeria Airport, Spain
Distance from station: SSO 56km
Actualización: 27/06/2017 17:00
Despejado
Despejado
 Viento del OSO
Viento: OSO 46 km/h
Temperatura: 29°C
Indice Calor: 29°C
Rocío: 18°C
Humedad: 51%
Barómetro: 1007 hPa
Resumen: Despejado
Visibility: greater than 10 km
2017/06/27 15:00 LEAM 271500Z 25025KT 180V260 CAVOK 29/18 Q1007
 
LEZG - Zaragoza (mil/Ci, Spain
Distance from station: NO 431km
Actualización: 27/06/2017 17:00
Few Clouds
Few Clouds
 Viento del OSO
Viento: OSO 28 km/h, Racha: 46 km/h
Temperatura: 33°C
Rocío: 8°C
Humedad: 21%
Barómetro: 1005 hPa
Clouds: Few Clouds
Visibility: 10 km
Cloud details: Few Clouds 1219 m
Few Clouds 1524 m
2017/06/27 15:00 LEZG 271500Z 25015G25KT 9999 FEW040 FEW050CB 33/08 Q1005
LEMD - Madrid/Barajas, Spain
Distance from station: ONO 234km
Actualización: 27/06/2017 17:00
Parcialmente nuboso
Parcialmente nuboso
 Viento del SSO
Viento: SSO 20 km/h, Racha: 43 km/h
Temperatura: 28°C
Rocío: 9°C
Humedad: 30%
Barómetro: 1010 hPa
Clouds: Parcialmente nuboso
Visibility: 10 km
Cloud details: Parcialmente nuboso 2286 m
2017/06/27 15:00 LEMD 271500Z 21011G23KT 170V260 9999 SCT075 28/09 Q1010 NOSIG
 
LEGR - Granada Airport, Spain
Distance from station: OSO 62km
Actualización: 27/06/2017 17:00
Few Clouds
Few Clouds
 Viento del O
Viento: O 24 km/h
Temperatura: 31°C
Rocío: 7°C
Humedad: 22%
Barómetro: 1014 hPa
Clouds: Few Clouds
Visibility: 10 km
Cloud details: Few Clouds 2438 m
2017/06/27 15:00 LEGR 271500Z 27013KT 250V330 9999 FEW080 31/07 Q1014
LEMG - Malaga (civ/Mil), Spain
Distance from station: OSO 227km
Actualización: 27/06/2017 17:00
Despejado
Despejado
 Viento del NO
Viento: NO 24 km/h, Racha: 46 km/h
Temperatura: 35°C
Rocío: 7°C
Humedad: 18%
Barómetro: 1010 hPa
Resumen: Despejado
Visibility: greater than 10 km
2017/06/27 15:00 LEMG 271500Z 31013G25KT CAVOK 35/07 Q1010 NOSIG
 
LEZL - Sevilla (civ/Mil, Spain
Distance from station: S 318km
Actualización: 27/06/2017 17:00
Despejado
Despejado
 Viento del SSO
Viento: SSO 19 km/h
Temperatura: 31°C
Rocío: 11°C
Humedad: 29%
Barómetro: 1012 hPa
Resumen: Despejado
Visibility: greater than 10 km
2017/06/27 15:00 LEZL 271500Z 20010KT 140V260 CAVOK 31/11 Q1012 NOSIG
LEVT - Vitoria, Spain
Distance from station: NO 226km
Actualización: 27/06/2017 17:00
Parcialmente nuboso
Parcialmente nuboso
 Viento del ENE
Viento: ENE 7 km/h
Temperatura: 19°C
Rocío: 16°C
Humedad: 83%
Barómetro: 1011 hPa
Clouds: Parcialmente nuboso
Visibility: 10 km
Cloud details: Parcialmente nuboso 610 m
Parcialmente nuboso 914 m
2017/06/27 15:00 LEVT 271500Z 06004KT 010V110 9999 SCT020 SCT030TCU 19/16 Q1011
 
LEBB - Bilbao/Sondica, Spain
Distance from station: NNO 235km
Actualización: 27/06/2017 17:00
Muy nuboso
Muy nuboso
 Viento del NO
Viento: NO 19 km/h
Temperatura: 20°C
Rocío: 18°C
Humedad: 88%
Barómetro: 1010 hPa
Clouds: Muy nuboso
Visibility: 10 km
Cloud details: Few Clouds 396 m
Parcialmente nuboso 762 m
Muy nuboso 1067 m
2017/06/27 15:00 LEBB 271500Z 31010KT 280V350 9999 FEW013 SCT025 BKN035 20/18 Q1010 NOSIG
LESO - San Sebastian/Fu, Spain
Distance from station: N 231km
Actualización: 27/06/2017 17:00
Lluvia débil, Showers, Muy nuboso
Lluvia débil, Showers, Muy nuboso
 Viento del varies
Viento: varies 9 km/h, Racha: 30 km/h
Temperatura: 21°C
Rocío: 19°C
Humedad: 88%
Barómetro: 1010 hPa
Resumen: Lluvia débil, Showers
Clouds: Muy nuboso
Visibility: 10 km
Cloud details: Muy nuboso 518 m
2017/06/27 15:00 LESO 271500Z VRB05G16KT 9999 -SHRA BKN017TCU 21/19 Q1010
 
LEVD - Valladolid(Mil/C, Spain
Distance from station: ONO 239km
Actualización: 27/06/2017 17:00
Parcialmente nuboso
Parcialmente nuboso
 Viento del NNO
Viento: NNO 22 km/h
Temperatura: 20°C
Rocío: 11°C
Humedad: 56%
Barómetro: 1012 hPa
Clouds: Parcialmente nuboso
Visibility: 10 km
Cloud details: Parcialmente nuboso 1250 m
2017/06/27 15:00 LEVD 271500Z 33012KT 290V360 9999 SCT041 20/11 Q1012
LESA - Salamanca (civ/M, Spain
Distance from station: ONO 349km
Actualización: 27/06/2017 17:00
Parcialmente nuboso
Parcialmente nuboso
 Viento del ONO
Viento: ONO 24 km/h
Temperatura: 22°C
Rocío: 10°C
Humedad: 47%
Barómetro: 1014 hPa
Clouds: Parcialmente nuboso
Visibility: 10 km
Cloud details: Parcialmente nuboso 1494 m
2017/06/27 15:00 LESA 271500Z 29013KT 250V330 9999 SCT049 22/10 Q1014
 
LEXJ - Santander/Paraya, Spain
Distance from station: NNO 247km
Actualización: 27/06/2017 17:00
Muy nuboso
Muy nuboso
 Viento del ONO
Viento: ONO 19 km/h
Temperatura: 20°C
Rocío: 16°C
Humedad: 78%
Barómetro: 1010 hPa
Clouds: Muy nuboso
Visibility: 10 km
Cloud details: Parcialmente nuboso 671 m
Parcialmente nuboso 1067 m
Muy nuboso 2134 m
2017/06/27 15:00 LEXJ 271500Z 29010KT 260V320 9999 SCT022 SCT035 BKN070 20/16 Q1010 NOSIG
LEAS - Asturias/Aviles, Spain
Distance from station: NO 214km
Actualización: 27/06/2017 17:00
Parcialmente nuboso
Parcialmente nuboso
 Viento del NO
Viento: NO 11 km/h
Temperatura: 19°C
Rocío: 17°C
Humedad: 88%
Barómetro: 1010 hPa
Clouds: Parcialmente nuboso
Visibility: 10 km
Cloud details: Parcialmente nuboso 274 m
Parcialmente nuboso 2134 m
2017/06/27 15:00 LEAS 271500Z 31006KT 280V020 9999 SCT009 SCT070 19/17 Q1010 NOSIG
 
LECO - La Coruna/Alvedr, Spain
Distance from station: ONO 222km
Actualización: 27/06/2017 17:00
Muy nuboso
Muy nuboso
 Viento del O
Viento: O 17 km/h
Temperatura: 22°C
Rocío: 16°C
Humedad: 69%
Barómetro: 1011 hPa
Clouds: Muy nuboso
Visibility: 10 km
Cloud details: Parcialmente nuboso 762 m
Muy nuboso 1311 m
2017/06/27 15:00 LECO 271500Z 26009KT 200V320 9999 SCT025 BKN043 22/16 Q1011 NOSIG
LEVX - Vigo/Peinador, Spain
Distance from station: O 214km
Actualización: 27/06/2017 17:00
Muy nuboso
Muy nuboso
 Viento del OSO
Viento: OSO 22 km/h
Temperatura: 20°C
Rocío: 16°C
Humedad: 78%
Barómetro: 1014 hPa
Clouds: Muy nuboso
Visibility: 10 km
Cloud details: Parcialmente nuboso 488 m
Muy nuboso 701 m
Muy nuboso 914 m
2017/06/27 15:00 LEVX 271500Z 25012KT 210V290 9999 SCT016 BKN023 BKN030 20/16 Q1014 NOSIG